sensor_id;sensor_type;location;lat;lon;timestamp;pressure;altitude;pressure_sealevel;temperature;humidity
71907;BME280;59781;52.090;5.030;2023-05-21T00:02:14;101914.25;;;16.31;100.00
71907;BME280;59781;52.090;5.030;2023-05-21T00:04:46;101914.97;;;15.79;100.00
71907;BME280;59781;52.090;5.030;2023-05-21T00:07:12;101918.00;;;15.84;100.00
71907;BME280;59781;52.090;5.030;2023-05-21T00:09:39;101909.63;;;15.94;100.00
71907;BME280;59781;52.090;5.030;2023-05-21T00:12:06;101910.69;;;15.85;100.00
71907;BME280;59781;52.090;5.030;2023-05-21T00:14:33;101910.38;;;15.80;100.00
71907;BME280;59781;52.090;5.030;2023-05-21T00:16:59;101914.06;;;15.56;100.00
71907;BME280;59781;52.090;5.030;2023-05-21T00:19:25;101900.31;;;15.88;100.00
71907;BME280;59781;52.090;5.030;2023-05-21T00:21:52;101911.44;;;15.70;100.00
71907;BME280;59781;52.090;5.030;2023-05-21T00:24:18;101905.94;;;15.87;100.00
71907;BME280;59781;52.090;5.030;2023-05-21T00:26:43;101900.53;;;16.01;100.00
71907;BME280;59781;52.090;5.030;2023-05-21T00:29:09;101902.22;;;15.48;100.00
71907;BME280;59781;52.090;5.030;2023-05-21T00:31:35;101894.94;;;15.80;100.00
71907;BME280;59781;52.090;5.030;2023-05-21T00:34:01;101907.31;;;15.43;100.00
71907;BME280;59781;52.090;5.030;2023-05-21T00:36:27;101893.88;;;15.50;100.00
71907;BME280;59781;52.090;5.030;2023-05-21T00:38:52;101899.28;;;15.58;100.00
71907;BME280;59781;52.090;5.030;2023-05-21T00:41:18;101896.03;;;15.63;100.00
71907;BME280;59781;52.090;5.030;2023-05-21T00:43:44;101891.00;;;15.83;100.00
71907;BME280;59781;52.090;5.030;2023-05-21T00:46:16;101897.75;;;15.64;100.00
71907;BME280;59781;52.090;5.030;2023-05-21T00:48:45;101888.78;;;15.86;100.00
71907;BME280;59781;52.090;5.030;2023-05-21T00:51:13;101895.19;;;15.62;100.00
71907;BME280;59781;52.090;5.030;2023-05-21T00:53:42;101885.91;;;15.48;100.00
71907;BME280;59781;52.090;5.030;2023-05-21T00:56:09;101884.81;;;15.74;100.00
71907;BME280;59781;52.090;5.030;2023-05-21T00:58:36;101882.00;;;15.51;100.00
71907;BME280;59781;52.090;5.030;2023-05-21T01:01:04;101884.66;;;15.67;100.00
71907;BME280;59781;52.090;5.030;2023-05-21T01:03:32;101877.22;;;15.53;100.00
71907;BME280;59781;52.090;5.030;2023-05-21T01:06:07;101880.06;;;15.37;100.00
71907;BME280;59781;52.090;5.030;2023-05-21T01:08:34;101871.22;;;15.97;100.00
71907;BME280;59781;52.090;5.030;2023-05-21T01:11:04;101871.69;;;15.77;100.00
71907;BME280;59781;52.090;5.030;2023-05-21T01:13:35;101865.28;;;15.70;100.00
71907;BME280;59781;52.090;5.030;2023-05-21T01:16:04;101882.66;;;15.53;100.00
71907;BME280;59781;52.090;5.030;2023-05-21T01:18:32;101870.91;;;15.69;100.00
71907;BME280;59781;52.090;5.030;2023-05-21T01:21:00;101867.53;;;15.28;100.00
71907;BME280;59781;52.090;5.030;2023-05-21T01:23:27;101867.72;;;15.26;100.00
71907;BME280;59781;52.090;5.030;2023-05-21T01:25:53;101872.03;;;15.43;100.00
71907;BME280;59781;52.090;5.030;2023-05-21T01:28:20;101855.50;;;15.61;100.00
71907;BME280;59781;52.090;5.030;2023-05-21T01:30:46;101867.50;;;15.36;100.00
71907;BME280;59781;52.090;5.030;2023-05-21T01:33:26;101867.28;;;15.45;100.00
71907;BME280;59781;52.090;5.030;2023-05-21T01:38:41;101867.06;;;15.55;100.00
71907;BME280;59781;52.090;5.030;2023-05-21T01:41:16;101872.56;;;15.39;100.00
71907;BME280;59781;52.090;5.030;2023-05-21T01:43:45;101867.06;;;15.63;100.00
71907;BME280;59781;52.090;5.030;2023-05-21T01:46:16;101870.94;;;15.61;100.00
71907;BME280;59781;52.090;5.030;2023-05-21T01:48:48;101868.97;;;15.46;100.00
71907;BME280;59781;52.090;5.030;2023-05-21T01:51:15;101868.78;;;15.17;100.00
71907;BME280;59781;52.090;5.030;2023-05-21T01:53:41;101871.28;;;15.58;100.00
71907;BME280;59781;52.090;5.030;2023-05-21T01:56:07;101874.88;;;15.50;100.00
71907;BME280;59781;52.090;5.030;2023-05-21T01:58:33;101865.47;;;15.30;100.00
71907;BME280;59781;52.090;5.030;2023-05-21T02:00:58;101862.88;;;15.44;100.00
71907;BME280;59781;52.090;5.030;2023-05-21T02:03:25;101862.47;;;15.25;100.00
71907;BME280;59781;52.090;5.030;2023-05-21T02:05:52;101864.78;;;15.36;100.00
71907;BME280;59781;52.090;5.030;2023-05-21T02:08:19;101866.25;;;15.46;100.00
71907;BME280;59781;52.090;5.030;2023-05-21T02:10:48;101864.47;;;15.31;100.00
71907;BME280;59781;52.090;5.030;2023-05-21T02:13:14;101862.75;;;15.69;100.00
71907;BME280;59781;52.090;5.030;2023-05-21T02:15:44;101865.66;;;15.59;100.00
71907;BME280;59781;52.090;5.030;2023-05-21T02:18:11;101867.19;;;15.31;100.00
71907;BME280;59781;52.090;5.030;2023-05-21T02:20:41;101864.28;;;15.32;100.00
71907;BME280;59781;52.090;5.030;2023-05-21T02:23:07;101860.59;;;15.25;100.00
71907;BME280;59781;52.090;5.030;2023-05-21T02:25:33;101860.25;;;15.28;100.00
71907;BME280;59781;52.090;5.030;2023-05-21T02:27:59;101864.38;;;15.47;100.00
71907;BME280;59781;52.090;5.030;2023-05-21T02:30:25;101864.59;;;15.37;100.00
71907;BME280;59781;52.090;5.030;2023-05-21T02:32:52;101866.25;;;15.15;100.00
71907;BME280;59781;52.090;5.030;2023-05-21T02:35:18;101864.41;;;15.08;100.00
71907;BME280;59781;52.090;5.030;2023-05-21T02:37:43;101856.19;;;15.24;100.00
71907;BME280;59781;52.090;5.030;2023-05-21T02:40:10;101858.03;;;15.24;100.00
71907;BME280;59781;52.090;5.030;2023-05-21T02:42:38;101867.16;;;15.00;100.00
71907;BME280;59781;52.090;5.030;2023-05-21T02:45:09;101857.97;;;15.40;100.00
71907;BME280;59781;52.090;5.030;2023-05-21T02:47:37;101859.91;;;15.23;100.00
71907;BME280;59781;52.090;5.030;2023-05-21T02:50:07;101869.47;;;15.11;100.00
71907;BME280;59781;52.090;5.030;2023-05-21T02:52:37;101860.44;;;15.18;100.00
71907;BME280;59781;52.090;5.030;2023-05-21T02:55:03;101862.38;;;15.41;100.00
71907;BME280;59781;52.090;5.030;2023-05-21T02:57:29;101862.56;;;15.39;100.00
71907;BME280;59781;52.090;5.030;2023-05-21T02:59:55;101850.50;;;15.42;100.00
71907;BME280;59781;52.090;5.030;2023-05-21T03:02:20;101858.19;;;15.30;100.00
71907;BME280;59781;52.090;5.030;2023-05-21T03:04:47;101854.41;;;15.08;100.00
71907;BME280;59781;52.090;5.030;2023-05-21T03:07:15;101862.41;;;14.93;100.00
71907;BME280;59781;52.090;5.030;2023-05-21T03:09:44;101855.84;;;15.27;100.00
71907;BME280;59781;52.090;5.030;2023-05-21T03:12:11;101852.50;;;15.17;100.00
71907;BME280;59781;52.090;5.030;2023-05-21T03:14:36;101861.81;;;15.54;100.00
71907;BME280;59781;52.090;5.030;2023-05-21T03:17:03;101852.94;;;15.29;100.00
71907;BME280;59781;52.090;5.030;2023-05-21T03:19:31;101845.59;;;15.37;100.00
71907;BME280;59781;52.090;5.030;2023-05-21T03:22:01;101843.91;;;15.36;100.00
71907;BME280;59781;52.090;5.030;2023-05-21T03:24:28;101845.81;;;15.28;100.00
71907;BME280;59781;52.090;5.030;2023-05-21T03:26:58;101840.00;;;15.08;100.00
71907;BME280;59781;52.090;5.030;2023-05-21T03:29:26;101841.59;;;15.25;100.00
71907;BME280;59781;52.090;5.030;2023-05-21T03:31:53;101845.09;;;15.34;100.00
71907;BME280;59781;52.090;5.030;2023-05-21T03:34:20;101839.06;;;15.55;100.00
71907;BME280;59781;52.090;5.030;2023-05-21T03:36:47;101838.25;;;15.46;100.00
71907;BME280;59781;52.090;5.030;2023-05-21T03:39:14;101839.94;;;15.16;100.00
71907;BME280;59781;52.090;5.030;2023-05-21T03:41:40;101836.59;;;15.06;100.00
71907;BME280;59781;52.090;5.030;2023-05-21T03:44:10;101834.84;;;15.13;100.00
71907;BME280;59781;52.090;5.030;2023-05-21T03:46:47;101840.88;;;15.31;100.00
71907;BME280;59781;52.090;5.030;2023-05-21T03:49:31;101836.88;;;15.19;100.00
71907;BME280;59781;52.090;5.030;2023-05-21T03:51:58;101831.59;;;15.26;100.00
71907;BME280;59781;52.090;5.030;2023-05-21T03:54:24;101842.72;;;15.39;100.00
71907;BME280;59781;52.090;5.030;2023-05-21T03:56:53;101836.34;;;15.24;100.00
71907;BME280;59781;52.090;5.030;2023-05-21T03:59:19;101838.78;;;15.10;100.00
71907;BME280;59781;52.090;5.030;2023-05-21T04:01:45;101834.63;;;15.23;100.00
71907;BME280;59781;52.090;5.030;2023-05-21T04:04:14;101842.78;;;15.23;100.00
71907;BME280;59781;52.090;5.030;2023-05-21T04:06:40;101832.66;;;15.16;100.00
71907;BME280;59781;52.090;5.030;2023-05-21T04:09:10;101842.06;;;14.98;100.00
71907;BME280;59781;52.090;5.030;2023-05-21T04:11:36;101835.41;;;15.08;100.00
71907;BME280;59781;52.090;5.030;2023-05-21T04:14:02;101835.41;;;15.39;100.00
71907;BME280;59781;52.090;5.030;2023-05-21T04:16:28;101833.88;;;15.45;100.00
71907;BME280;59781;52.090;5.030;2023-05-21T04:18:54;101831.88;;;15.31;100.00
71907;BME280;59781;52.090;5.030;2023-05-21T04:21:20;101832.13;;;15.21;100.00
71907;BME280;59781;52.090;5.030;2023-05-21T04:23:46;101835.03;;;15.11;100.00
71907;BME280;59781;52.090;5.030;2023-05-21T04:26:21;101834.59;;;15.31;100.00
71907;BME280;59781;52.090;5.030;2023-05-21T04:28:48;101832.19;;;15.44;100.00
71907;BME280;59781;52.090;5.030;2023-05-21T04:31:14;101841.44;;;15.27;100.00
71907;BME280;59781;52.090;5.030;2023-05-21T04:33:40;101845.69;;;15.21;100.00
71907;BME280;59781;52.090;5.030;2023-05-21T04:36:07;101845.50;;;15.23;100.00
71907;BME280;59781;52.090;5.030;2023-05-21T04:38:35;101854.66;;;15.53;100.00
71907;BME280;59781;52.090;5.030;2023-05-21T04:41:05;101846.94;;;15.41;100.00
71907;BME280;59781;52.090;5.030;2023-05-21T04:43:31;101843.47;;;15.25;100.00
71907;BME280;59781;52.090;5.030;2023-05-21T04:45:57;101843.91;;;15.36;100.00
71907;BME280;59781;52.090;5.030;2023-05-21T04:48:24;101839.03;;;15.24;100.00
71907;BME280;59781;52.090;5.030;2023-05-21T04:50:51;101837.69;;;15.28;100.00
71907;BME280;59781;52.090;5.030;2023-05-21T04:53:18;101842.56;;;15.32;100.00
71907;BME280;59781;52.090;5.030;2023-05-21T04:55:44;101845.91;;;15.42;100.00
71907;BME280;59781;52.090;5.030;2023-05-21T04:58:11;101844.50;;;15.55;100.00
71907;BME280;59781;52.090;5.030;2023-05-21T05:00:38;101843.03;;;15.44;100.00
71907;BME280;59781;52.090;5.030;2023-05-21T05:03:06;101844.31;;;15.56;100.00
71907;BME280;59781;52.090;5.030;2023-05-21T05:05:32;101843.59;;;15.31;100.00
71907;BME280;59781;52.090;5.030;2023-05-21T05:07:58;101841.47;;;15.49;100.00
71907;BME280;59781;52.090;5.030;2023-05-21T05:10:24;101833.13;;;15.51;100.00
71907;BME280;59781;52.090;5.030;2023-05-21T05:12:52;101834.00;;;15.43;100.00
71907;BME280;59781;52.090;5.030;2023-05-21T05:15:18;101839.03;;;15.63;100.00
71907;BME280;59781;52.090;5.030;2023-05-21T05:17:43;101837.38;;;15.54;100.00
71907;BME280;59781;52.090;5.030;2023-05-21T05:20:12;101843.75;;;15.69;100.00
71907;BME280;59781;52.090;5.030;2023-05-21T05:22:38;101847.84;;;15.65;100.00
71907;BME280;59781;52.090;5.030;2023-05-21T05:25:04;101834.50;;;15.78;100.00
71907;BME280;59781;52.090;5.030;2023-05-21T05:27:30;101831.06;;;15.53;100.00
71907;BME280;59781;52.090;5.030;2023-05-21T05:29:56;101840.56;;;15.65;100.00
71907;BME280;59781;52.090;5.030;2023-05-21T05:32:22;101843.28;;;15.57;100.00
71907;BME280;59781;52.090;5.030;2023-05-21T05:34:48;101838.50;;;15.67;100.00
71907;BME280;59781;52.090;5.030;2023-05-21T05:37:13;101836.25;;;15.71;100.00
71907;BME280;59781;52.090;5.030;2023-05-21T05:39:40;101841.03;;;15.69;100.00
71907;BME280;59781;52.090;5.030;2023-05-21T05:42:05;101836.94;;;15.96;100.00
71907;BME280;59781;52.090;5.030;2023-05-21T05:44:31;101837.94;;;15.41;100.00
71907;BME280;59781;52.090;5.030;2023-05-21T05:46:58;101830.78;;;15.48;100.00
71907;BME280;59781;52.090;5.030;2023-05-21T05:49:23;101831.44;;;15.81;100.00
71907;BME280;59781;52.090;5.030;2023-05-21T05:51:49;101827.09;;;15.95;100.00
71907;BME280;59781;52.090;5.030;2023-05-21T05:54:15;101822.31;;;15.97;100.00
71907;BME280;59781;52.090;5.030;2023-05-21T05:56:41;101814.75;;;15.61;100.00
71907;BME280;59781;52.090;5.030;2023-05-21T05:59:07;101822.22;;;15.59;100.00
71907;BME280;59781;52.090;5.030;2023-05-21T06:01:35;101821.25;;;15.83;100.00
71907;BME280;59781;52.090;5.030;2023-05-21T06:04:01;101825.72;;;15.76;100.00
71907;BME280;59781;52.090;5.030;2023-05-21T06:06:28;101830.94;;;16.00;100.00
71907;BME280;59781;52.090;5.030;2023-05-21T06:08:54;101831.06;;;16.07;100.00
71907;BME280;59781;52.090;5.030;2023-05-21T06:11:20;101834.31;;;16.02;100.00
71907;BME280;59781;52.090;5.030;2023-05-21T06:13:47;101826.34;;;16.01;100.00
71907;BME280;59781;52.090;5.030;2023-05-21T06:16:15;101823.38;;;16.11;100.00
71907;BME280;59781;52.090;5.030;2023-05-21T06:18:41;101825.75;;;16.28;100.00
71907;BME280;59781;52.090;5.030;2023-05-21T06:21:06;101818.50;;;16.06;100.00
71907;BME280;59781;52.090;5.030;2023-05-21T06:23:33;101818.44;;;16.29;100.00
71907;BME280;59781;52.090;5.030;2023-05-21T06:26:02;101820.56;;;16.04;100.00
71907;BME280;59781;52.090;5.030;2023-05-21T06:28:29;101826.22;;;16.32;100.00
71907;BME280;59781;52.090;5.030;2023-05-21T06:30:56;101826.13;;;16.78;100.00
71907;BME280;59781;52.090;5.030;2023-05-21T06:33:23;101817.75;;;16.79;100.00
71907;BME280;59781;52.090;5.030;2023-05-21T06:35:52;101825.00;;;16.87;100.00
71907;BME280;59781;52.090;5.030;2023-05-21T06:38:17;101823.59;;;17.42;100.00
71907;BME280;59781;52.090;5.030;2023-05-21T06:40:43;101821.72;;;17.42;100.00
71907;BME280;59781;52.090;5.030;2023-05-21T06:43:15;101821.53;;;16.93;100.00
71907;BME280;59781;52.090;5.030;2023-05-21T06:46:10;101829.38;;;17.17;100.00
71907;BME280;59781;52.090;5.030;2023-05-21T06:48:38;101825.25;;;17.79;100.00
71907;BME280;59781;52.090;5.030;2023-05-21T06:51:04;101825.09;;;17.30;100.00
71907;BME280;59781;52.090;5.030;2023-05-21T06:53:30;101822.63;;;17.13;100.00
71907;BME280;59781;52.090;5.030;2023-05-21T06:55:55;101818.09;;;17.57;100.00
71907;BME280;59781;52.090;5.030;2023-05-21T06:58:33;101810.50;;;17.52;100.00
71907;BME280;59781;52.090;5.030;2023-05-21T07:01:00;101814.69;;;17.69;100.00
71907;BME280;59781;52.090;5.030;2023-05-21T07:03:26;101810.75;;;18.49;100.00
71907;BME280;59781;52.090;5.030;2023-05-21T07:05:55;101815.41;;;17.99;100.00
71907;BME280;59781;52.090;5.030;2023-05-21T07:08:22;101812.28;;;18.58;100.00
71907;BME280;59781;52.090;5.030;2023-05-21T07:10:48;101814.16;;;18.02;100.00
71907;BME280;59781;52.090;5.030;2023-05-21T07:13:16;101824.19;;;18.23;100.00
71907;BME280;59781;52.090;5.030;2023-05-21T07:15:41;101817.34;;;18.33;100.00
71907;BME280;59781;52.090;5.030;2023-05-21T07:18:07;101824.09;;;18.10;100.00
71907;BME280;59781;52.090;5.030;2023-05-21T07:20:33;101818.31;;;17.98;100.00
71907;BME280;59781;52.090;5.030;2023-05-21T07:23:02;101827.78;;;18.58;100.00
71907;BME280;59781;52.090;5.030;2023-05-21T07:25:29;101819.59;;;18.58;100.00
71907;BME280;59781;52.090;5.030;2023-05-21T07:27:55;101818.19;;;18.62;100.00
71907;BME280;59781;52.090;5.030;2023-05-21T07:30:21;101814.75;;;18.81;100.00
71907;BME280;59781;52.090;5.030;2023-05-21T07:32:46;101815.22;;;19.46;100.00
71907;BME280;59781;52.090;5.030;2023-05-21T07:35:12;101808.81;;;20.40;100.00
71907;BME280;59781;52.090;5.030;2023-05-21T07:37:38;101813.09;;;21.07;100.00
71907;BME280;59781;52.090;5.030;2023-05-21T07:40:05;101808.81;;;20.33;100.00
71907;BME280;59781;52.090;5.030;2023-05-21T07:42:33;101806.91;;;19.94;100.00
71907;BME280;59781;52.090;5.030;2023-05-21T07:45:00;101812.63;;;19.99;100.00
71907;BME280;59781;52.090;5.030;2023-05-21T07:47:27;101807.94;;;19.73;100.00
71907;BME280;59781;52.090;5.030;2023-05-21T07:49:53;101810.69;;;19.73;100.00
71907;BME280;59781;52.090;5.030;2023-05-21T07:52:19;101808.75;;;18.99;100.00
71907;BME280;59781;52.090;5.030;2023-05-21T07:54:45;101823.41;;;19.46;100.00
71907;BME280;59781;52.090;5.030;2023-05-21T07:57:10;101813.44;;;19.80;100.00
71907;BME280;59781;52.090;5.030;2023-05-21T07:59:46;101805.69;;;20.16;100.00
71907;BME280;59781;52.090;5.030;2023-05-21T08:02:11;101801.22;;;20.15;100.00
71907;BME280;59781;52.090;5.030;2023-05-21T08:04:37;101793.66;;;20.30;100.00
71907;BME280;59781;52.090;5.030;2023-05-21T08:07:03;101799.94;;;19.65;100.00
71907;BME280;59781;52.090;5.030;2023-05-21T08:09:30;101792.50;;;19.45;100.00
71907;BME280;59781;52.090;5.030;2023-05-21T08:11:57;101797.09;;;18.77;100.00
71907;BME280;59781;52.090;5.030;2023-05-21T08:14:22;101801.16;;;18.95;100.00
71907;BME280;59781;52.090;5.030;2023-05-21T08:16:49;101797.00;;;18.99;100.00
71907;BME280;59781;52.090;5.030;2023-05-21T08:19:14;101800.41;;;19.88;100.00
71907;BME280;59781;52.090;5.030;2023-05-21T08:21:40;101787.56;;;20.02;100.00
71907;BME280;59781;52.090;5.030;2023-05-21T08:24:06;101794.72;;;19.90;100.00
71907;BME280;59781;52.090;5.030;2023-05-21T08:26:32;101788.38;;;19.76;100.00
71907;BME280;59781;52.090;5.030;2023-05-21T08:28:58;101793.59;;;19.51;100.00
71907;BME280;59781;52.090;5.030;2023-05-21T08:31:24;101797.06;;;19.99;100.00
71907;BME280;59781;52.090;5.030;2023-05-21T08:33:51;101799.84;;;18.84;100.00
71907;BME280;59781;52.090;5.030;2023-05-21T08:36:23;101794.69;;;19.57;100.00
71907;BME280;59781;52.090;5.030;2023-05-21T08:38:54;101797.88;;;20.00;100.00
71907;BME280;59781;52.090;5.030;2023-05-21T08:41:34;101791.56;;;20.32;100.00
71907;BME280;59781;52.090;5.030;2023-05-21T08:44:10;101794.78;;;20.94;100.00
71907;BME280;59781;52.090;5.030;2023-05-21T08:46:39;101794.28;;;20.59;100.00
71907;BME280;59781;52.090;5.030;2023-05-21T08:49:11;101801.69;;;19.99;100.00
71907;BME280;59781;52.090;5.030;2023-05-21T08:51:39;101791.56;;;19.80;100.00
71907;BME280;59781;52.090;5.030;2023-05-21T08:54:06;101797.22;;;19.71;100.00
71907;BME280;59781;52.090;5.030;2023-05-21T08:56:34;101793.03;;;19.95;100.00
71907;BME280;59781;52.090;5.030;2023-05-21T08:59:01;101791.78;;;20.18;100.00
71907;BME280;59781;52.090;5.030;2023-05-21T09:01:31;101794.31;;;20.26;100.00
71907;BME280;59781;52.090;5.030;2023-05-21T09:04:07;101789.47;;;20.48;100.00
71907;BME280;59781;52.090;5.030;2023-05-21T09:06:36;101777.47;;;19.96;100.00
71907;BME280;59781;52.090;5.030;2023-05-21T09:09:16;101784.97;;;20.73;100.00
71907;BME280;59781;52.090;5.030;2023-05-21T09:11:54;101778.19;;;20.82;100.00
71907;BME280;59781;52.090;5.030;2023-05-21T09:14:21;101776.13;;;20.78;100.00
71907;BME280;59781;52.090;5.030;2023-05-21T09:17:13;101776.19;;;21.09;100.00
71907;BME280;59781;52.090;5.030;2023-05-21T09:20:09;101773.63;;;20.70;100.00
71907;BME280;59781;52.090;5.030;2023-05-21T09:22:54;101775.56;;;21.07;100.00
71907;BME280;59781;52.090;5.030;2023-05-21T09:25:25;101776.38;;;20.63;100.00
71907;BME280;59781;52.090;5.030;2023-05-21T09:27:57;101764.28;;;20.90;100.00
71907;BME280;59781;52.090;5.030;2023-05-21T09:30:26;101772.75;;;21.34;100.00
71907;BME280;59781;52.090;5.030;2023-05-21T09:32:56;101762.06;;;21.82;100.00
71907;BME280;59781;52.090;5.030;2023-05-21T09:35:23;101766.34;;;21.46;100.00
71907;BME280;59781;52.090;5.030;2023-05-21T09:37:51;101764.16;;;22.12;100.00
71907;BME280;59781;52.090;5.030;2023-05-21T09:40:21;101764.81;;;22.32;98.19
71907;BME280;59781;52.090;5.030;2023-05-21T09:42:53;101759.72;;;22.54;100.00
71907;BME280;59781;52.090;5.030;2023-05-21T09:45:23;101761.72;;;22.65;98.48
71907;BME280;59781;52.090;5.030;2023-05-21T09:47:53;101756.19;;;22.28;100.00
71907;BME280;59781;52.090;5.030;2023-05-21T09:50:21;101756.63;;;21.75;100.00
71907;BME280;59781;52.090;5.030;2023-05-21T09:52:49;101760.28;;;21.94;100.00
71907;BME280;59781;52.090;5.030;2023-05-21T09:55:18;101747.91;;;22.72;100.00
71907;BME280;59781;52.090;5.030;2023-05-21T09:57:47;101752.09;;;22.74;99.63
71907;BME280;59781;52.090;5.030;2023-05-21T10:02:48;101750.78;;;22.77;97.55
71907;BME280;59781;52.090;5.030;2023-05-21T10:05:19;101752.09;;;22.74;100.00
71907;BME280;59781;52.090;5.030;2023-05-21T10:07:49;101756.63;;;23.17;95.37
71907;BME280;59781;52.090;5.030;2023-05-21T10:10:19;101745.31;;;23.25;100.00
71907;BME280;59781;52.090;5.030;2023-05-21T10:12:53;101749.72;;;23.14;96.00
71907;BME280;59781;52.090;5.030;2023-05-21T10:15:23;101739.41;;;24.17;93.72
71907;BME280;59781;52.090;5.030;2023-05-21T10:17:51;101733.81;;;24.12;89.12
71907;BME280;59781;52.090;5.030;2023-05-21T10:20:21;101733.91;;;24.05;90.26
71907;BME280;59781;52.090;5.030;2023-05-21T10:22:49;101736.19;;;24.55;88.85
71907;BME280;59781;52.090;5.030;2023-05-21T10:25:15;101741.09;;;24.53;90.06
71907;BME280;59781;52.090;5.030;2023-05-21T10:27:41;101730.81;;;25.29;88.97
71907;BME280;59781;52.090;5.030;2023-05-21T10:30:08;101729.53;;;25.20;83.85
71907;BME280;59781;52.090;5.030;2023-05-21T10:32:34;101742.75;;;25.34;86.43
71907;BME280;59781;52.090;5.030;2023-05-21T10:35:00;101732.81;;;25.05;85.44
71907;BME280;59781;52.090;5.030;2023-05-21T10:37:27;101727.31;;;25.05;85.83
71907;BME280;59781;52.090;5.030;2023-05-21T10:39:54;101731.34;;;25.42;85.73
71907;BME280;59781;52.090;5.030;2023-05-21T10:51:14;101729.94;;;25.57;83.67
71907;BME280;59781;52.090;5.030;2023-05-21T10:57:56;101732.56;;;24.78;89.73
71907;BME280;59781;52.090;5.030;2023-05-21T11:00:34;101722.84;;;25.15;84.97
71907;BME280;59781;52.090;5.030;2023-05-21T11:03:02;101726.09;;;25.12;83.69
71907;BME280;59781;52.090;5.030;2023-05-21T11:08:37;101725.50;;;24.70;86.84
71907;BME280;59781;52.090;5.030;2023-05-21T11:11:04;101719.78;;;25.00;85.41
71907;BME280;59781;52.090;5.030;2023-05-21T11:13:47;101721.34;;;25.08;88.37
71907;BME280;59781;52.090;5.030;2023-05-21T11:16:15;101709.81;;;25.11;86.24
71907;BME280;59781;52.090;5.030;2023-05-21T11:21:11;101711.97;;;24.97;85.79
71907;BME280;59781;52.090;5.030;2023-05-21T11:23:53;101701.31;;;25.46;85.93
71907;BME280;59781;52.090;5.030;2023-05-21T11:29:13;101693.78;;;25.25;85.93
71907;BME280;59781;52.090;5.030;2023-05-21T11:31:45;101697.28;;;24.92;86.69
71907;BME280;59781;52.090;5.030;2023-05-21T11:34:14;101703.16;;;24.83;87.87
71907;BME280;59781;52.090;5.030;2023-05-21T11:39:46;101704.53;;;24.69;89.08
71907;BME280;59781;52.090;5.030;2023-05-21T11:42:27;101695.06;;;25.05;86.97
71907;BME280;59781;52.090;5.030;2023-05-21T11:44:55;101688.25;;;25.70;82.69
71907;BME280;59781;52.090;5.030;2023-05-21T11:47:24;101685.38;;;25.48;88.29
71907;BME280;59781;52.090;5.030;2023-05-21T11:49:51;101681.81;;;24.91;85.56
71907;BME280;59781;52.090;5.030;2023-05-21T11:52:17;101677.63;;;25.16;84.86
71907;BME280;59781;52.090;5.030;2023-05-21T11:54:45;101680.56;;;25.89;83.81
71907;BME280;59781;52.090;5.030;2023-05-21T11:57:20;101677.97;;;24.92;87.87
71907;BME280;59781;52.090;5.030;2023-05-21T11:59:48;101666.06;;;25.31;85.38
71907;BME280;59781;52.090;5.030;2023-05-21T12:02:20;101659.63;;;25.59;83.35
71907;BME280;59781;52.090;5.030;2023-05-21T12:04:48;101667.63;;;25.10;84.07
71907;BME280;59781;52.090;5.030;2023-05-21T12:07:19;101658.69;;;25.20;83.77
71907;BME280;59781;52.090;5.030;2023-05-21T12:09:47;101667.03;;;24.97;84.56
71907;BME280;59781;52.090;5.030;2023-05-21T12:12:18;101664.72;;;24.77;87.63
71907;BME280;59781;52.090;5.030;2023-05-21T12:14:50;101660.94;;;24.95;87.87
71907;BME280;59781;52.090;5.030;2023-05-21T12:17:20;101656.63;;;23.60;89.03
71907;BME280;59781;52.090;5.030;2023-05-21T12:19:50;101650.47;;;23.46;89.91
71907;BME280;59781;52.090;5.030;2023-05-21T12:22:18;101649.94;;;23.79;92.67
71907;BME280;59781;52.090;5.030;2023-05-21T12:24:45;101651.72;;;23.97;89.98
71907;BME280;59781;52.090;5.030;2023-05-21T12:27:12;101654.72;;;23.84;90.97
71907;BME280;59781;52.090;5.030;2023-05-21T12:29:46;101658.63;;;23.41;91.07
71907;BME280;59781;52.090;5.030;2023-05-21T12:32:14;101648.75;;;23.75;89.54
71907;BME280;59781;52.090;5.030;2023-05-21T12:34:51;101647.53;;;23.94;89.91
71907;BME280;59781;52.090;5.030;2023-05-21T12:39:50;101662.88;;;23.37;95.36
71907;BME280;59781;52.090;5.030;2023-05-21T12:42:25;101660.34;;;23.65;94.78
71907;BME280;59781;52.090;5.030;2023-05-21T12:44:56;101654.72;;;23.84;89.72
71907;BME280;59781;52.090;5.030;2023-05-21T12:47:26;101655.13;;;23.34;90.85
71907;BME280;59781;52.090;5.030;2023-05-21T12:49:56;101662.97;;;23.95;92.36
71907;BME280;59781;52.090;5.030;2023-05-21T12:52:23;101655.88;;;24.35;89.37
71907;BME280;59781;52.090;5.030;2023-05-21T12:54:51;101656.09;;;24.45;87.30
71907;BME280;59781;52.090;5.030;2023-05-21T12:57:20;101654.69;;;24.42;87.02
71907;BME280;59781;52.090;5.030;2023-05-21T12:59:52;101650.16;;;24.93;87.74
71907;BME280;59781;52.090;5.030;2023-05-21T13:05:15;101659.03;;;24.67;86.25
71907;BME280;59781;52.090;5.030;2023-05-21T13:07:43;101646.75;;;24.46;86.63
71907;BME280;59781;52.090;5.030;2023-05-21T13:10:12;101640.06;;;25.10;86.84
71907;BME280;59781;52.090;5.030;2023-05-21T13:12:39;101644.47;;;25.11;84.49
71907;BME280;59781;52.090;5.030;2023-05-21T13:15:05;101649.41;;;24.41;89.25
71907;BME280;59781;52.090;5.030;2023-05-21T13:17:33;101641.06;;;25.21;88.73
71907;BME280;59781;52.090;5.030;2023-05-21T13:20:13;101648.41;;;24.58;87.37
71907;BME280;59781;52.090;5.030;2023-05-21T13:22:42;101644.72;;;25.10;87.63
71907;BME280;59781;52.090;5.030;2023-05-21T13:25:25;101641.91;;;24.13;88.48